Time;durP1;ratioP1;P1;durP2;ratioP2;P2;SDS_P1;SDS_P2;PMS_P1;PMS_P2;Temp;Humidity;BMP_temperature;BMP_pressure;BME280_temperature;BME280_humidity;BME280_pressure;Samples;Min_cycle;Max_cycle;Signal;HPM_P1;HPM_P2
2021/04/24 00:01:54;;;;;;;16.20;8.30;;;10.40;53.50;;;;;;5067121;28;20286;-65
2021/04/24 00:04:20;;;;;;;17.40;6.88;;;10.40;54.20;;;;;;5056613;28;20051;-64
2021/04/24 00:06:48;;;;;;;20.55;7.88;;;10.30;53.70;;;;;;5070675;28;20040;-64
2021/04/24 00:09:13;;;;;;;23.42;7.85;;;10.20;53.80;;;;;;5075503;28;20047;-65
2021/04/24 00:11:39;;;;;;;16.70;7.40;;;10.20;53.80;;;;;;5074320;28;20466;-66
2021/04/24 00:14:07;;;;;;;24.35;8.45;;;10.10;53.90;;;;;;5072570;28;20024;-65
2021/04/24 00:16:35;;;;;;;20.83;8.18;;;10.10;54.00;;;;;;5080701;28;20051;-65
2021/04/24 00:19:01;;;;;;;15.30;6.95;;;10.00;54.10;;;;;;5077127;28;20059;-64
2021/04/24 00:21:26;;;;;;;23.48;8.32;;;10.00;54.20;;;;;;5075769;28;20522;-65
2021/04/24 00:23:54;;;;;;;22.00;7.85;;;9.90;54.30;;;;;;5060656;28;20658;-66
2021/04/24 00:26:19;;;;;;;15.32;7.80;;;9.80;54.30;;;;;;5076328;28;20036;-65
2021/04/24 00:28:50;;;;;;;16.27;7.13;;;9.80;54.40;;;;;;5062600;28;20488;-65
2021/04/24 00:31:15;;;;;;;16.77;6.88;;;9.70;54.40;;;;;;5076906;28;20056;-65
2021/04/24 00:33:43;;;;;;;19.38;6.75;;;9.70;54.50;;;;;;5082145;28;20174;-65
2021/04/24 00:36:13;;;;;;;17.63;7.70;;;9.70;54.60;;;;;;5080654;28;20088;-65
2021/04/24 00:38:43;;;;;;;17.40;6.90;;;9.60;54.70;;;;;;5079443;28;20097;-65
2021/04/24 00:41:09;;;;;;;21.65;8.20;;;9.60;54.80;;;;;;5063940;28;20200;-66
2021/04/24 00:43:37;;;;;;;17.20;7.13;;;9.50;54.80;;;;;;5063640;28;20036;-66
2021/04/24 00:46:08;;;;;;;18.05;6.97;;;9.50;54.90;;;;;;5078370;28;20032;-65
2021/04/24 00:48:34;;;;;;;19.15;7.25;;;9.50;54.90;;;;;;5079981;28;20060;-65
2021/04/24 00:50:59;;;;;;;27.33;7.65;;;9.40;54.90;;;;;;5077333;28;20119;-65
2021/04/24 00:53:25;;;;;;;20.48;8.00;;;9.30;55.00;;;;;;5059443;28;20037;-65
2021/04/24 00:55:52;;;;;;;18.25;6.70;;;9.30;55.00;;;;;;5078425;28;20039;-65
2021/04/24 00:58:21;;;;;;;17.63;7.25;;;9.20;55.00;;;;;;5058893;28;20512;-65
2021/04/24 01:00:49;;;;;;;18.63;7.28;;;9.20;55.10;;;;;;5054549;28;20071;-65
2021/04/24 01:03:14;;;;;;;20.10;6.90;;;9.10;55.10;;;;;;5062274;28;20497;-65
2021/04/24 01:05:44;;;;;;;21.60;8.00;;;9.10;55.20;;;;;;5058448;28;20040;-65
2021/04/24 01:08:10;;;;;;;19.90;7.28;;;9.00;55.20;;;;;;5055323;28;20033;-65
2021/04/24 01:10:38;;;;;;;21.08;7.13;;;8.90;55.20;;;;;;5037577;28;20059;-65
2021/04/24 01:13:07;;;;;;;20.45;6.90;;;8.90;55.20;;;;;;5057753;28;20525;-65
2021/04/24 01:15:36;;;;;;;18.65;7.05;;;8.90;55.30;;;;;;5059418;28;20603;-66
2021/04/24 01:18:05;;;;;;;21.55;6.97;;;8.80;55.30;;;;;;5061728;28;20445;-66
2021/04/24 01:20:36;;;;;;;20.25;7.13;;;8.70;55.30;;;;;;5055004;28;20037;-65
2021/04/24 01:23:06;;;;;;;19.73;7.97;;;8.70;55.40;;;;;;5069450;28;21030;-65
2021/04/24 01:25:37;;;;;;;19.67;7.65;;;8.70;55.50;;;;;;5055250;28;20086;-65
2021/04/24 01:28:03;;;;;;;19.13;7.30;;;8.60;55.60;;;;;;5071677;28;20032;-65
2021/04/24 01:30:36;;;;;;;16.70;7.85;;;8.60;55.60;;;;;;5073481;28;20051;-65
2021/04/24 01:33:05;;;;;;;18.20;7.35;;;8.60;55.70;;;;;;5054008;28;20047;-65
2021/04/24 01:35:32;;;;;;;20.15;6.30;;;8.60;55.70;;;;;;5082725;28;20040;-65
2021/04/24 01:38:02;;;;;;;25.38;7.10;;;8.50;55.80;;;;;;5064543;28;20127;-65
2021/04/24 01:40:30;;;;;;;18.73;7.65;;;8.50;55.80;;;;;;5068568;28;20606;-65
2021/04/24 01:42:56;;;;;;;18.23;7.25;;;8.50;55.90;;;;;;5078694;28;20397;-65
2021/04/24 01:45:24;;;;;;;20.13;7.40;;;8.40;55.90;;;;;;5062739;28;20035;-65
2021/04/24 01:47:55;;;;;;;14.07;7.43;;;8.40;56.00;;;;;;5079500;28;20028;-65
2021/04/24 01:50:30;;;;;;;23.40;6.97;;;8.40;56.10;;;;;;5075372;28;20119;-65
2021/04/24 01:53:00;;;;;;;20.40;7.63;;;8.30;56.20;;;;;;5074096;28;20100;-65
2021/04/24 01:55:30;;;;;;;18.13;6.68;;;8.30;56.30;;;;;;5074958;28;20124;-65
2021/04/24 01:58:02;;;;;;;21.52;8.00;;;8.40;56.40;;;;;;5060617;28;20047;-65
2021/04/24 02:00:35;;;;;;;21.40;7.47;;;8.30;56.40;;;;;;5056389;28;20036;-65
2021/04/24 02:03:05;;;;;;;24.15;7.63;;;8.40;56.40;;;;;;5041521;28;20131;-65
2021/04/24 02:05:33;;;;;;;17.77;7.72;;;8.30;56.40;;;;;;5050364;28;20036;-65
2021/04/24 02:08:05;;;;;;;23.80;7.90;;;8.30;56.40;;;;;;5078165;28;20036;-64
2021/04/24 02:10:35;;;;;;;21.88;8.20;;;8.30;56.60;;;;;;5063306;28;20071;-64
2021/04/24 02:13:10;;;;;;;21.27;7.97;;;8.40;56.80;;;;;;5065487;28;20151;-64
2021/04/24 02:15:36;;;;;;;29.10;8.23;;;8.40;57.00;;;;;;5079568;28;20137;-64
2021/04/24 02:18:04;;;;;;;21.92;8.15;;;8.40;56.90;;;;;;5075178;28;20095;-64
2021/04/24 02:20:31;;;;;;;21.60;8.18;;;8.40;56.90;;;;;;5070142;28;20036;-64
2021/04/24 02:22:59;;;;;;;24.80;8.10;;;8.50;57.00;;;;;;5074420;28;20036;-65
2021/04/24 02:25:24;;;;;;;22.52;8.90;;;8.50;57.00;;;;;;5056686;28;20032;-65
2021/04/24 02:27:55;;;;;;;17.95;7.50;;;8.50;57.00;;;;;;5073711;28;20447;-65
2021/04/24 02:30:22;;;;;;;21.98;8.02;;;8.50;57.10;;;;;;5074735;28;20122;-64
2021/04/24 02:32:48;;;;;;;24.70;8.23;;;8.50;57.00;;;;;;5069725;28;20047;-64
2021/04/24 02:35:17;;;;;;;18.83;8.98;;;8.50;57.10;;;;;;5069283;28;20060;-65
2021/04/24 02:37:43;;;;;;;19.40;8.32;;;8.50;57.20;;;;;;5078155;28;20119;-65
2021/04/24 02:40:14;;;;;;;22.95;7.85;;;8.50;57.20;;;;;;5075805;28;20127;-64
2021/04/24 02:42:41;;;;;;;19.60;8.25;;;8.50;57.20;;;;;;5063747;28;20028;-65
2021/04/24 02:45:09;;;;;;;23.73;8.60;;;8.50;57.20;;;;;;5069861;28;20058;-65
2021/04/24 02:47:34;;;;;;;17.70;8.50;;;8.50;57.10;;;;;;5075503;28;20466;-65
2021/04/24 02:50:02;;;;;;;23.77;8.52;;;8.50;57.20;;;;;;5069692;28;20052;-64
2021/04/24 02:52:30;;;;;;;29.05;9.07;;;8.50;57.20;;;;;;5058757;28;20055;-65
2021/04/24 02:54:55;;;;;;;21.67;8.65;;;8.40;57.20;;;;;;5055983;28;20428;-65
2021/04/24 02:57:21;;;;;;;24.60;8.98;;;8.40;57.40;;;;;;5070041;28;20033;-65
2021/04/24 02:59:49;;;;;;;23.70;8.80;;;8.50;57.70;;;;;;5036358;28;20323;-64
2021/04/24 03:02:16;;;;;;;28.83;8.43;;;8.50;57.90;;;;;;5049150;28;20599;-64
2021/04/24 03:04:45;;;;;;;25.90;9.57;;;8.60;58.00;;;;;;5076963;28;20043;-65
2021/04/24 03:07:11;;;;;;;20.52;8.18;;;8.70;58.10;;;;;;5065967;28;20061;-65
2021/04/24 03:09:39;;;;;;;20.58;9.13;;;8.70;58.10;;;;;;5078534;28;20056;-65
2021/04/24 03:12:07;;;;;;;22.27;9.18;;;8.80;58.20;;;;;;5072567;28;20077;-64
2021/04/24 03:14:32;;;;;;;24.73;9.48;;;8.90;58.30;;;;;;5059907;28;20040;-64
2021/04/24 03:17:00;;;;;;;28.60;9.85;;;8.90;58.40;;;;;;5078176;28;20032;-65
2021/04/24 03:19:28;;;;;;;26.90;9.52;;;9.00;58.50;;;;;;5066253;28;20044;-65
2021/04/24 03:21:56;;;;;;;26.42;9.38;;;9.10;58.60;;;;;;5083010;28;20077;-64
2021/04/24 03:24:22;;;;;;;28.75;8.77;;;9.20;58.70;;;;;;5064656;28;20191;-65
2021/04/24 03:26:47;;;;;;;20.30;8.55;;;9.30;58.50;;;;;;5068947;28;20138;-65
2021/04/24 03:29:17;;;;;;;23.33;8.60;;;9.30;58.20;;;;;;5056985;28;20040;-66
2021/04/24 03:31:45;;;;;;;23.55;8.73;;;9.30;58.00;;;;;;5054083;28;20040;-65
2021/04/24 03:34:15;;;;;;;25.98;9.80;;;9.20;57.90;;;;;;5073708;28;20028;-65
2021/04/24 03:36:41;;;;;;;22.77;8.85;;;9.20;58.10;;;;;;5074838;28;20047;-65
2021/04/24 03:39:09;;;;;;;24.88;9.00;;;9.20;58.40;;;;;;5060845;28;20032;-65
2021/04/24 03:41:37;;;;;;;23.60;8.20;;;9.20;58.50;;;;;;5079963;28;20028;-64
2021/04/24 03:44:03;;;;;;;26.33;9.48;;;9.30;58.60;;;;;;5073795;28;20119;-65
2021/04/24 03:46:28;;;;;;;23.75;9.35;;;9.30;58.50;;;;;;5075741;28;20040;-64
2021/04/24 03:48:55;;;;;;;23.25;9.57;;;9.30;58.40;;;;;;5080623;28;20032;-64
2021/04/24 03:51:23;;;;;;;24.08;8.82;;;9.40;58.40;;;;;;5078385;28;20409;-65
2021/04/24 03:53:48;;;;;;;20.02;7.85;;;9.30;58.20;;;;;;5076462;28;20036;-65
2021/04/24 03:56:14;;;;;;;21.75;8.55;;;9.30;58.10;;;;;;5083640;28;20047;-65
2021/04/24 03:58:42;;;;;;;20.38;9.18;;;9.30;57.90;;;;;;5080310;28;20069;-65
2021/04/24 04:01:07;;;;;;;26.20;9.55;;;9.20;57.80;;;;;;5073151;28;20047;-65
2021/04/24 04:03:35;;;;;;;18.55;8.77;;;9.20;57.80;;;;;;5061491;28;20039;-64
2021/04/24 04:06:01;;;;;;;18.15;8.45;;;9.10;57.80;;;;;;5077852;28;20031;-65
2021/04/24 04:08:26;;;;;;;31.40;9.07;;;9.10;57.70;;;;;;5063715;28;20040;-64
2021/04/24 04:10:54;;;;;;;27.25;8.38;;;8.90;57.60;;;;;;5080538;28;20035;-65
2021/04/24 04:13:22;;;;;;;25.38;8.10;;;8.90;57.50;;;;;;5070087;28;20043;-65
2021/04/24 04:15:50;;;;;;;21.38;8.95;;;8.80;57.60;;;;;;5082540;28;20036;-64
2021/04/24 04:18:18;;;;;;;22.35;8.60;;;8.80;57.60;;;;;;5072713;28;20040;-64
2021/04/24 04:20:49;;;;;;;24.67;9.15;;;8.70;57.60;;;;;;5077172;28;20383;-64
2021/04/24 04:23:15;;;;;;;18.95;8.43;;;8.70;57.70;;;;;;5082832;28;20032;-65
2021/04/24 04:25:42;;;;;;;20.25;8.65;;;8.60;57.70;;;;;;5081789;28;20051;-64
2021/04/24 04:28:11;;;;;;;28.02;9.10;;;8.60;57.70;;;;;;5073465;28;20529;-64
2021/04/24 04:30:40;;;;;;;20.95;8.50;;;8.50;57.70;;;;;;5057926;28;20036;-65
2021/04/24 04:33:06;;;;;;;26.58;9.25;;;8.50;57.70;;;;;;5069095;28;20078;-65
2021/04/24 04:35:36;;;;;;;20.85;9.18;;;8.50;57.70;;;;;;5081757;28;20032;-65
2021/04/24 04:38:04;;;;;;;21.20;9.13;;;8.40;57.80;;;;;;5083157;28;20050;-64
2021/04/24 04:40:36;;;;;;;23.75;8.68;;;8.40;57.90;;;;;;5053373;28;20040;-65
2021/04/24 04:43:02;;;;;;;28.30;9.30;;;8.40;58.00;;;;;;5074651;28;20066;-65
2021/04/24 04:45:27;;;;;;;23.25;8.80;;;8.40;58.10;;;;;;5083193;28;20404;-65
2021/04/24 04:47:55;;;;;;;24.25;8.73;;;8.40;58.20;;;;;;5083531;28;20031;-65
2021/04/24 04:50:24;;;;;;;28.65;9.30;;;8.50;58.40;;;;;;5058935;28;20123;-65
2021/04/24 04:52:51;;;;;;;27.13;9.75;;;8.50;58.60;;;;;;5078669;28;20030;-64
2021/04/24 04:55:20;;;;;;;27.50;9.60;;;8.60;58.80;;;;;;5083221;28;20115;-64
2021/04/24 04:57:48;;;;;;;23.58;8.70;;;8.70;58.90;;;;;;5067561;28;20583;-65
2021/04/24 05:00:15;;;;;;;22.52;8.88;;;8.80;59.10;;;;;;5086932;28;20119;-64
2021/04/24 05:02:42;;;;;;;22.98;9.05;;;8.90;59.20;;;;;;5076219;28;20101;-65
2021/04/24 05:05:09;;;;;;;24.10;9.40;;;9.00;59.20;;;;;;5083454;28;20279;-64
2021/04/24 05:07:37;;;;;;;23.40;8.93;;;9.10;59.20;;;;;;5084316;28;24353;-64
2021/04/24 05:10:04;;;;;;;31.42;9.35;;;9.20;59.20;;;;;;5070379;28;20040;-64
2021/04/24 05:12:32;;;;;;;26.15;10.02;;;9.30;59.20;;;;;;5078299;28;20040;-64
2021/04/24 05:15:00;;;;;;;30.17;10.65;;;9.40;59.30;;;;;;5077208;28;20055;-65
2021/04/24 05:17:28;;;;;;;29.75;11.10;;;9.50;59.40;;;;;;5075567;28;20032;-64
2021/04/24 05:19:56;;;;;;;32.38;10.40;;;9.60;59.50;;;;;;5087442;28;20097;-64
2021/04/24 05:22:21;;;;;;;29.60;10.55;;;9.70;59.50;;;;;;5074951;28;20502;-65
2021/04/24 05:24:47;;;;;;;30.67;9.70;;;9.90;59.50;;;;;;5083831;28;20051;-65
2021/04/24 05:27:15;;;;;;;31.05;11.02;;;9.90;60.00;;;;;;5086634;28;20073;-64
2021/04/24 05:29:40;;;;;;;21.70;9.23;;;10.00;59.40;;;;;;5063061;28;20066;-65
2021/04/24 05:32:06;;;;;;;28.75;9.65;;;10.10;59.40;;;;;;5079317;28;20032;-65
2021/04/24 05:34:32;;;;;;;26.17;8.88;;;10.20;59.30;;;;;;5084746;28;20036;-64
2021/04/24 05:36:58;;;;;;;22.75;9.80;;;10.30;59.30;;;;;;5088133;28;20207;-64
2021/04/24 05:39:24;;;;;;;24.30;8.65;;;10.50;59.30;;;;;;5083984;28;20041;-65
2021/04/24 05:41:51;;;;;;;24.02;9.23;;;10.60;59.30;;;;;;5076724;28;20117;-65
2021/04/24 05:44:19;;;;;;;23.45;8.93;;;10.70;59.20;;;;;;5084922;28;20028;-65
2021/04/24 05:46:45;;;;;;;22.92;8.35;;;10.80;59.00;;;;;;5084953;28;20401;-64
2021/04/24 05:49:10;;;;;;;20.55;7.75;;;10.90;58.80;;;;;;5087780;28;20040;-65
2021/04/24 05:51:43;;;;;;;24.50;8.43;;;11.00;58.70;;;;;;5079498;28;20054;-65
2021/04/24 05:54:11;;;;;;;19.70;9.43;;;11.10;58.50;;;;;;5078812;28;20050;-64
2021/04/24 05:56:36;;;;;;;19.77;8.02;;;11.20;58.40;;;;;;5058767;28;20040;-65
2021/04/24 05:59:04;;;;;;;18.05;7.53;;;11.40;58.20;;;;;;5084413;28;20452;-65
2021/04/24 06:01:30;;;;;;;13.35;6.70;;;11.50;57.70;;;;;;5077044;28;20497;-64
2021/04/24 06:04:00;;;;;;;21.58;6.75;;;11.60;57.50;;;;;;5078754;28;20051;-64
2021/04/24 06:06:28;;;;;;;21.67;7.53;;;11.70;57.20;;;;;;5070690;28;20584;-65
2021/04/24 06:08:54;;;;;;;15.85;6.95;;;11.80;57.10;;;;;;5083507;28;20071;-64
2021/04/24 06:11:20;;;;;;;18.73;7.05;;;11.90;56.80;;;;;;5076670;28;20228;-64
2021/04/24 06:13:47;;;;;;;16.83;7.25;;;12.10;56.50;;;;;;5080292;28;20543;-64
2021/04/24 06:16:13;;;;;;;16.88;6.82;;;12.20;56.20;;;;;;5085394;28;20038;-64
2021/04/24 06:18:41;;;;;;;19.02;7.30;;;12.30;55.90;;;;;;5086394;28;20040;-65
2021/04/24 06:21:09;;;;;;;15.40;6.28;;;12.40;55.70;;;;;;5062585;28;20036;-65
2021/04/24 06:23:37;;;;;;;21.15;6.78;;;12.60;55.60;;;;;;5076371;28;20047;-65
2021/04/24 06:26:02;;;;;;;21.08;5.93;;;12.70;55.20;;;;;;5086062;28;20047;-64
2021/04/24 06:28:28;;;;;;;18.08;5.78;;;13.00;54.90;;;;;;5083850;28;20028;-65
2021/04/24 06:30:53;;;;;;;18.38;6.57;;;13.20;54.40;;;;;;5078090;28;20032;-65
2021/04/24 06:33:19;;;;;;;16.50;5.30;;;13.40;54.00;;;;;;5081544;28;20040;-65
2021/04/24 06:35:45;;;;;;;15.02;5.53;;;13.60;53.50;;;;;;5084012;28;20032;-65
2021/04/24 06:38:13;;;;;;;17.05;5.60;;;13.70;52.60;;;;;;5080212;28;20170;-65
2021/04/24 06:40:41;;;;;;;16.33;5.43;;;13.80;52.40;;;;;;5066273;28;20035;-65
2021/04/24 06:43:09;;;;;;;15.85;5.40;;;13.80;51.60;;;;;;5075312;28;20028;-65
2021/04/24 06:45:34;;;;;;;15.35;5.80;;;13.80;51.10;;;;;;5080521;28;20085;-64
2021/04/24 06:48:01;;;;;;;19.30;5.35;;;13.80;51.10;;;;;;5076781;28;20115;-64
2021/04/24 06:50:27;;;;;;;15.85;5.15;;;13.80;51.10;;;;;;5085834;28;20044;-64
2021/04/24 06:52:52;;;;;;;18.10;6.20;;;13.90;50.80;;;;;;5072679;28;20040;-64
2021/04/24 06:55:23;;;;;;;17.80;5.05;;;13.90;50.50;;;;;;5079750;28;20898;-65
2021/04/24 06:57:52;;;;;;;14.10;4.88;;;14.00;50.60;;;;;;5083070;28;20024;-65
2021/04/24 07:00:17;;;;;;;21.00;5.50;;;14.20;50.60;;;;;;5085576;28;20054;-64
2021/04/24 07:02:46;;;;;;;20.50;5.20;;;14.40;50.10;;;;;;5073565;28;20115;-65
2021/04/24 07:05:15;;;;;;;17.60;3.60;;;14.70;49.50;;;;;;5057776;28;20035;-64
2021/04/24 07:07:41;;;;;;;17.30;3.78;;;14.90;48.70;;;;;;5082431;28;20081;-65
2021/04/24 07:10:11;;;;;;;18.58;4.15;;;15.10;48.00;;;;;;5080373;28;20082;-65
2021/04/24 07:12:36;;;;;;;14.77;3.97;;;15.40;47.60;;;;;;5073786;28;20111;-65
2021/04/24 07:15:06;;;;;;;17.10;4.80;;;15.90;46.80;;;;;;5078396;28;20126;-65
2021/04/24 07:17:31;;;;;;;22.35;5.07;;;16.00;45.60;;;;;;5080250;28;20162;-65
2021/04/24 07:19:59;;;;;;;14.73;4.05;;;16.60;46.40;;;;;;5071904;28;20547;-65
2021/04/24 07:22:25;;;;;;;13.60;3.88;;;;;;;;;;5053572;28;20036;-65
2021/04/24 07:24:54;;;;;;;17.08;4.35;;;;;;;;;;5073338;28;20119;-65
2021/04/24 07:27:22;;;;;;;18.45;4.18;;;;;;;;;;5059703;28;20039;-65
2021/04/24 07:29:50;;;;;;;15.30;3.97;;;18.00;45.30;;;;;;5068742;28;20518;-65
2021/04/24 07:32:19;;;;;;;13.00;3.70;;;;;;;;;;5075643;28;20534;-65
2021/04/24 07:34:47;;;;;;;17.23;3.88;;;21.10;37.70;;;;;;5080693;28;20047;-65
2021/04/24 07:37:15;;;;;;;13.07;3.38;;;21.60;36.00;;;;;;5076549;28;20867;-65
2021/04/24 07:39:43;;;;;;;14.55;4.18;;;22.20;34.50;;;;;;5061920;28;20047;-65
2021/04/24 07:42:11;;;;;;;9.90;3.58;;;23.40;33.50;;;;;;5056507;28;20039;-65
2021/04/24 07:44:39;;;;;;;13.25;3.22;;;;;;;;;;5079108;28;20028;-66
2021/04/24 07:47:08;;;;;;;12.35;3.78;;;24.50;31.00;;;;;;5077983;28;20504;-66
2021/04/24 07:49:34;;;;;;;15.35;3.50;;;25.90;28.20;;;;;;5077069;28;20045;-65
2021/04/24 07:52:01;;;;;;;8.80;3.10;;;;;;;;;;5075478;28;20130;-65
2021/04/24 07:54:27;;;;;;;14.40;3.95;;;;;;;;;;5075426;28;20059;-66
2021/04/24 07:56:56;;;;;;;15.98;3.75;;;;;;;;;;5071963;28;20845;-65
2021/04/24 07:59:24;;;;;;;12.57;3.10;;;;;;;;;;5057202;28;20044;-66
2021/04/24 08:01:52;;;;;;;16.33;3.47;;;;;;;;;;5049184;28;20040;-65
2021/04/24 08:04:18;;;;;;;16.92;3.78;;;25.90;28.40;;;;;;5067115;28;20747;-67
2021/04/24 08:06:48;;;;;;;11.95;3.10;;;28.10;24.90;;;;;;5076575;28;20040;-66
2021/04/24 08:09:16;;;;;;;10.43;3.97;;;27.80;24.80;;;;;;5078081;28;20047;-65
2021/04/24 08:11:41;;;;;;;19.35;3.58;;;27.20;24.60;;;;;;5073991;28;20043;-65
2021/04/24 08:14:07;;;;;;;16.00;3.45;;;26.30;25.60;;;;;;5059599;28;20417;-65
2021/04/24 08:16:35;;;;;;;13.50;4.07;;;25.90;25.90;;;;;;5074790;28;20039;-65
2021/04/24 08:19:05;;;;;;;11.75;3.42;;;25.50;26.10;;;;;;5071253;28;20043;-65
2021/04/24 08:21:33;;;;;;;16.58;3.92;;;25.10;26.60;;;;;;5071860;28;20127;-65
2021/04/24 08:24:00;;;;;;;11.30;3.25;;;24.80;27.10;;;;;;5064075;28;20047;-66
2021/04/24 08:26:31;;;;;;;7.93;2.65;;;;;;;;;;5027363;28;20056;-65
2021/04/24 08:28:59;;;;;;;16.70;3.65;;;25.80;26.80;;;;;;5046974;28;20028;-65
2021/04/24 08:31:25;;;;;;;10.18;2.92;;;27.80;24.30;;;;;;5057649;28;20066;-65
2021/04/24 08:33:51;;;;;;;10.13;2.60;;;27.20;23.70;;;;;;5078197;28;20561;-65
2021/04/24 08:36:17;;;;;;;11.98;3.90;;;26.30;24.40;;;;;;5080941;28;20544;-65
2021/04/24 08:38:43;;;;;;;11.52;2.30;;;25.90;24.90;;;;;;5054540;28;20047;-65
2021/04/24 08:41:09;;;;;;;11.13;2.55;;;26.00;24.80;;;;;;5068013;28;20584;-65
2021/04/24 08:43:39;;;;;;;11.90;2.40;;;26.60;24.80;;;;;;5044558;28;20105;-65
2021/04/24 08:46:05;;;;;;;13.57;3.38;;;;;;;;;;5038596;28;20040;-66
2021/04/24 08:48:31;;;;;;;17.30;2.63;;;;;;;;;;5052132;28;20559;-66
2021/04/24 08:51:00;;;;;;;8.75;2.20;;;27.40;24.70;;;;;;5052529;28;20115;-66
2021/04/24 08:53:28;;;;;;;10.73;2.45;;;29.60;21.60;;;;;;5033915;28;20040;-65
2021/04/24 08:55:54;;;;;;;12.18;2.42;;;28.60;21.40;;;;;;5066304;28;20040;-65
2021/04/24 08:58:20;;;;;;;6.95;2.40;;;27.40;22.10;;;;;;5079436;28;20771;-65
2021/04/24 09:00:49;;;;;;;11.80;2.35;;;26.40;23.10;;;;;;5061469;28;20040;-66
2021/04/24 09:03:21;;;;;;;12.45;2.65;;;26.40;23.20;;;;;;5049953;28;20035;-66
2021/04/24 09:05:51;;;;;;;7.95;2.15;;;25.90;23.00;;;;;;5072473;28;20052;-66
2021/04/24 09:08:29;;;;;;;11.55;2.25;;;25.10;23.60;;;;;;5062075;28;21047;-66
2021/04/24 09:11:04;;;;;;;13.05;2.40;;;24.10;24.20;;;;;;5069442;28;20546;-66
2021/04/24 09:13:33;;;;;;;5.55;1.63;;;23.20;24.60;;;;;;5051809;28;20505;-67
2021/04/24 09:15:59;;;;;;;6.38;1.80;;;23.30;25.00;;;;;;5059091;28;20173;-67
2021/04/24 09:18:29;;;;;;;7.63;2.05;;;24.40;23.80;;;;;;5077690;28;20044;-66
2021/04/24 09:21:01;;;;;;;10.50;2.20;;;;;;;;;;5075155;28;20074;-66
2021/04/24 09:23:31;;;;;;;7.68;1.90;;;;;;;;;;5060504;28;20345;-67
2021/04/24 09:26:05;;;;;;;5.80;1.83;;;25.80;22.40;;;;;;5070069;28;20031;-66
2021/04/24 09:28:37;;;;;;;4.55;1.60;;;26.30;20.80;;;;;;5066279;28;20063;-66
2021/04/24 09:31:17;;;;;;;7.93;1.98;;;25.50;21.20;;;;;;5061103;28;20129;-65
2021/04/24 09:33:48;;;;;;;5.65;1.95;;;24.60;22.00;;;;;;5049189;28;20055;-66
2021/04/24 09:36:17;;;;;;;5.07;1.45;;;24.70;23.20;;;;;;5044611;28;20039;-66
2021/04/24 09:38:52;;;;;;;7.68;1.38;;;25.60;21.60;;;;;;5051653;28;20032;-66
2021/04/24 09:41:27;;;;;;;5.65;1.20;;;26.30;21.10;;;;;;5061701;28;20604;-66
2021/04/24 09:44:11;;;;;;;7.18;1.73;;;26.60;20.70;;;;;;5071273;28;20105;-66
2021/04/24 09:46:53;;;;;;;6.20;1.40;;;26.60;20.70;;;;;;5051944;28;20042;-66
2021/04/24 09:49:24;;;;;;;6.57;1.50;;;26.40;21.10;;;;;;5069461;28;20077;-66
2021/04/24 09:52:06;;;;;;;7.13;1.70;;;26.00;21.20;;;;;;5074186;28;20074;-65
2021/04/24 09:54:41;;;;;;;6.72;1.48;;;25.80;21.80;;;;;;5062518;28;20036;-66
2021/04/24 09:57:15;;;;;;;8.68;1.70;;;26.40;21.40;;;;;;5066706;28;20036;-66
2021/04/24 09:59:55;;;;;;;5.32;1.50;;;;;;;;;;5071149;28;20127;-66
2021/04/24 10:02:29;;;;;;;6.03;1.50;;;;;;;;;;5061495;28;20129;-66
2021/04/24 10:05:22;;;;;;;5.18;1.40;;;27.50;21.40;;;;;;5063898;28;20036;-65
2021/04/24 10:07:51;;;;;;;3.83;1.55;;;30.70;18.60;;;;;;5065687;28;20077;-66
2021/04/24 10:10:30;;;;;;;5.13;1.10;;;31.20;17.90;;;;;;5064260;28;20780;-66
2021/04/24 10:13:03;;;;;;;6.43;1.10;;;31.90;17.50;;;;;;5054700;28;20039;-66
2021/04/24 10:15:44;;;;;;;8.13;1.50;;;32.40;17.10;;;;;;5066511;28;20042;-66
2021/04/24 10:18:14;;;;;;;7.45;1.20;;;32.80;17.00;;;;;;5075775;28;20036;-66
2021/04/24 10:20:44;;;;;;;7.78;1.50;;;33.10;16.80;;;;;;5072046;28;20043;-66
2021/04/24 10:23:11;;;;;;;5.70;1.55;;;33.30;16.90;;;;;;5067503;28;20039;-66
2021/04/24 10:25:39;;;;;;;6.15;1.50;;;33.50;15.90;;;;;;5050380;28;20115;-66
2021/04/24 10:28:12;;;;;;;6.70;1.25;;;33.30;16.00;;;;;;5062715;28;20039;-66
2021/04/24 10:30:40;;;;;;;5.72;1.13;;;33.30;16.20;;;;;;5065468;28;20035;-66
2021/04/24 10:33:09;;;;;;;5.03;1.08;;;33.60;15.80;;;;;;5059894;28;20168;-66
2021/04/24 10:35:34;;;;;;;5.53;1.52;;;33.70;15.60;;;;;;5063482;28;20116;-66
2021/04/24 10:38:02;;;;;;;6.55;1.20;;;33.50;15.40;;;;;;5062766;28;20044;-66
2021/04/24 10:40:32;;;;;;;4.63;1.00;;;33.40;15.80;;;;;;5057482;28;20028;-67
2021/04/24 10:43:01;;;;;;;4.53;1.20;;;33.30;15.50;;;;;;5061062;28;20075;-66
2021/04/24 10:45:31;;;;;;;6.35;1.50;;;33.20;15.10;;;;;;5068224;28;20078;-66
2021/04/24 10:47:58;;;;;;;5.97;1.30;;;32.60;15.40;;;;;;5068506;28;20659;-66
2021/04/24 10:50:41;;;;;;;3.10;1.10;;;32.10;15.70;;;;;;5053213;28;20489;-67
2021/04/24 10:53:21;;;;;;;4.45;1.27;;;31.70;16.10;;;;;;5068591;28;20498;-66
2021/04/24 10:55:48;;;;;;;3.00;1.10;;;31.40;15.90;;;;;;5072520;28;20093;-66
2021/04/24 10:58:16;;;;;;;3.80;1.00;;;31.10;16.10;;;;;;5054743;28;20043;-66
2021/04/24 11:00:43;;;;;;;2.40;1.02;;;30.90;15.70;;;;;;5070749;28;20086;-66
2021/04/24 11:03:09;;;;;;;2.03;0.95;;;30.70;15.80;;;;;;5042889;28;20125;-65
2021/04/24 11:05:44;;;;;;;3.85;0.80;;;30.30;15.90;;;;;;5069534;28;20119;-65
2021/04/24 11:08:24;;;;;;;2.38;0.82;;;29.80;15.90;;;;;;5065268;28;20081;-66
2021/04/24 11:11:08;;;;;;;2.95;1.10;;;29.50;16.30;;;;;;5067366;28;20093;-65
2021/04/24 11:13:39;;;;;;;2.13;0.70;;;29.10;16.60;;;;;;5068919;28;20043;-65
2021/04/24 11:16:07;;;;;;;3.17;0.80;;;;;;;;;;5062163;28;20485;-65
2021/04/24 11:18:36;;;;;;;4.93;0.77;;;;;;;;;;5076818;28;20097;-65
2021/04/24 11:21:07;;;;;;;5.18;0.80;;;;;;;;;;5055517;28;20148;-66
2021/04/24 11:23:35;;;;;;;4.43;1.00;;;;;;;;;;5062408;28;20028;-65
2021/04/24 11:26:04;;;;;;;2.45;0.90;;;;;;;;;;5066230;28;20485;-65
2021/04/24 11:28:30;;;;;;;5.57;1.00;;;;;;;;;;5073474;28;20032;-65
2021/04/24 11:31:04;;;;;;;7.22;1.25;;;;;;;;;;5062189;28;20485;-65
2021/04/24 11:33:47;;;;;;;5.50;1.02;;;28.70;16.80;;;;;;5054260;28;20042;-65
2021/04/24 11:39:00;;;;;;;7.03;1.10;;;24.20;21.10;;;;;;5068569;28;20709;-65
2021/04/24 11:41:45;;;;;;;8.07;1.23;;;23.90;21.40;;;;;;5042805;28;21012;-65
2021/04/24 11:44:24;;;;;;;5.22;1.20;;;23.70;22.00;;;;;;5065835;28;20139;-65
2021/04/24 11:46:54;;;;;;;3.67;1.10;;;23.50;22.30;;;;;;5074932;28;20409;-65
2021/04/24 11:49:23;;;;;;;8.93;1.30;;;23.40;22.50;;;;;;5060406;28;20048;-65
2021/04/24 11:51:59;;;;;;;5.35;1.02;;;23.20;23.10;;;;;;5063553;28;20595;-65
2021/04/24 11:54:38;;;;;;;5.13;1.10;;;23.10;23.40;;;;;;5043723;28;20043;-65
2021/04/24 11:57:10;;;;;;;10.02;1.52;;;23.10;23.70;;;;;;5065393;28;20075;-65
2021/04/24 11:59:38;;;;;;;7.75;1.20;;;23.00;23.60;;;;;;5071041;28;20040;-65
2021/04/24 12:02:27;;;;;;;5.07;1.10;;;22.90;23.90;;;;;;5073261;28;20497;-65
2021/04/24 12:05:00;;;;;;;6.13;1.23;;;22.80;24.50;;;;;;5048649;28;20083;-65
2021/04/24 12:07:26;;;;;;;4.30;0.98;;;22.70;24.60;;;;;;5067512;28;20074;-64
2021/04/24 12:10:03;;;;;;;4.05;1.33;;;22.40;24.50;;;;;;5049324;28;20989;-65
2021/04/24 12:12:37;;;;;;;3.08;1.10;;;22.20;24.70;;;;;;5049853;28;20036;-65
2021/04/24 12:15:13;;;;;;;9.57;1.63;;;22.00;24.70;;;;;;5041582;28;20063;-65
2021/04/24 12:17:52;;;;;;;5.70;1.27;;;21.90;25.00;;;;;;5048067;28;20063;-65
2021/04/24 12:20:23;;;;;;;6.88;1.23;;;21.80;25.40;;;;;;5051141;28;20131;-65
2021/04/24 12:22:52;;;;;;;4.90;1.20;;;21.60;25.50;;;;;;5048700;28;20044;-65
2021/04/24 12:25:19;;;;;;;4.93;1.30;;;21.50;25.80;;;;;;5059195;28;20072;-65
2021/04/24 12:27:49;;;;;;;6.72;1.42;;;21.30;26.30;;;;;;5065095;28;20036;-65
2021/04/24 12:30:27;;;;;;;3.20;1.25;;;21.30;26.50;;;;;;5076214;28;20051;-65
2021/04/24 12:33:12;;;;;;;6.60;1.35;;;21.40;25.90;;;;;;5069220;28;20078;-64
2021/04/24 12:35:39;;;;;;;7.32;1.42;;;21.40;25.50;;;;;;5066579;28;20036;-65
2021/04/24 12:38:11;;;;;;;6.65;1.20;;;21.40;25.60;;;;;;5072289;28;20127;-65
2021/04/24 12:40:40;;;;;;;7.25;1.40;;;21.20;25.60;;;;;;5069073;28;20047;-65
2021/04/24 12:43:16;;;;;;;3.42;1.30;;;21.00;26.10;;;;;;5056211;28;20482;-65
2021/04/24 12:45:43;;;;;;;4.30;1.17;;;20.90;26.20;;;;;;5069015;28;20040;-66
2021/04/24 12:48:34;;;;;;;6.22;1.23;;;20.80;26.80;;;;;;5071725;28;20123;-65
2021/04/24 12:51:00;;;;;;;4.35;1.40;;;20.80;26.80;;;;;;5068266;28;20050;-65
2021/04/24 12:53:38;;;;;;;6.97;1.98;;;20.90;26.40;;;;;;5065628;28;20059;-65
2021/04/24 12:56:05;;;;;;;7.00;1.50;;;20.70;26.90;;;;;;5053329;28;20052;-64
2021/04/24 12:58:32;;;;;;;3.78;1.00;;;20.50;27.30;;;;;;5070338;28;20032;-65
2021/04/24 13:01:11;;;;;;;8.38;1.67;;;20.60;27.50;;;;;;5070332;28;20047;-65
2021/04/24 13:03:38;;;;;;;4.22;1.23;;;20.70;27.20;;;;;;5066390;28;20032;-65